createdAt,value
2022-08-26T15:31:45.454Z,7.28
2022-08-26T15:34:17.028Z,6.88
2022-08-26T15:36:48.687Z,7.75
2022-08-26T15:39:19.054Z,7.40
2022-08-26T15:41:49.075Z,8.10
2022-08-26T15:44:20.345Z,7.97
2022-08-26T15:46:56.546Z,7.05
2022-08-26T15:49:28.903Z,7.25
2022-08-26T15:51:59.359Z,7.63
2022-08-26T15:54:32.378Z,7.47
2022-08-26T15:57:04.091Z,7.22
2022-08-26T15:59:35.000Z,7.97
2022-08-26T16:02:07.428Z,7.28
2022-08-26T16:04:39.947Z,7.78
2022-08-26T16:07:09.824Z,7.22
2022-08-26T16:09:39.463Z,7.18
2022-08-26T16:12:09.513Z,7.72
2022-08-26T16:14:41.810Z,7.40
2022-08-26T16:17:13.839Z,8.10
2022-08-26T16:19:43.851Z,8.00
2022-08-26T16:22:15.093Z,7.75
2022-08-26T16:24:45.718Z,7.95
2022-08-26T16:27:15.444Z,8.02
2022-08-26T16:29:45.669Z,7.50
2022-08-26T16:32:17.228Z,7.90
2022-08-26T16:34:56.329Z,7.53
2022-08-26T16:37:28.973Z,8.07
2022-08-26T16:40:00.814Z,8.98
2022-08-26T16:42:31.723Z,9.10
2022-08-26T16:45:02.780Z,8.50
2022-08-26T16:47:37.580Z,8.02
2022-08-26T16:50:09.774Z,8.63
2022-08-26T16:52:40.593Z,8.48
2022-08-26T16:55:17.881Z,8.15
2022-08-26T16:57:48.701Z,8.90
2022-08-26T17:00:22.108Z,8.07
2022-08-26T17:02:54.282Z,8.80
2022-08-26T17:05:28.986Z,8.18
2022-08-26T17:08:01.317Z,9.10
2022-08-26T17:10:32.492Z,9.95
2022-08-26T17:13:04.203Z,8.38
2022-08-26T17:15:36.084Z,9.32
2022-08-26T17:18:09.849Z,10.05
2022-08-26T17:20:39.937Z,8.50
2022-08-26T17:23:12.491Z,9.15
2022-08-26T17:25:43.005Z,9.23
2022-08-26T17:28:14.688Z,9.43
2022-08-26T17:30:49.456Z,8.70
2022-08-26T17:33:24.524Z,8.48
2022-08-26T17:36:00.895Z,8.82
2022-08-26T17:38:31.112Z,8.55
2022-08-26T17:41:05.909Z,9.00
2022-08-26T17:43:40.838Z,8.40
2022-08-26T17:46:12.157Z,8.40
2022-08-26T17:48:43.303Z,8.43
2022-08-26T17:51:14.345Z,9.02
2022-08-26T18:06:13.983Z,9.18
2022-08-26T18:08:45.156Z,9.10
2022-08-26T18:11:17.868Z,11.00
2022-08-26T18:13:50.666Z,9.57
2022-08-26T18:16:21.010Z,11.50
2022-08-26T18:18:53.643Z,9.97
2022-08-26T18:21:28.206Z,9.10
2022-08-26T18:24:00.729Z,9.02
2022-08-26T18:26:38.065Z,8.27
2022-08-26T18:29:10.745Z,8.15
2022-08-26T18:31:40.123Z,9.13
2022-08-26T18:34:16.146Z,9.07
2022-08-26T18:36:48.129Z,8.45
2022-08-26T18:39:22.113Z,9.55
2022-08-26T18:41:53.953Z,10.35
2022-08-26T18:44:24.039Z,8.75
2022-08-26T18:46:54.100Z,8.13
2022-08-26T18:49:25.303Z,8.93
2022-08-26T18:51:56.097Z,8.63
2022-08-26T18:54:27.153Z,8.77
2022-08-26T18:56:58.778Z,7.30
2022-08-26T18:59:30.615Z,8.65
2022-08-26T19:02:02.393Z,8.48
2022-08-26T19:04:33.093Z,8.32
2022-08-26T19:07:04.904Z,10.05
2022-08-26T19:09:35.127Z,9.23
2022-08-26T19:12:07.042Z,9.43
2022-08-26T19:14:37.780Z,9.63
2022-08-26T19:17:10.071Z,10.02
2022-08-26T19:19:39.627Z,11.70
2022-08-26T19:22:11.070Z,10.90
2022-08-26T19:24:43.144Z,10.70
2022-08-26T19:27:25.497Z,9.27
2022-08-26T19:29:56.553Z,11.02
2022-08-26T19:32:26.966Z,8.70
2022-08-26T19:34:59.902Z,7.50
2022-08-26T19:37:31.461Z,7.82
2022-08-26T19:40:01.244Z,8.50
2022-08-26T19:42:32.004Z,8.25
2022-08-26T19:45:24.325Z,8.50
2022-08-26T19:47:55.536Z,7.55
2022-08-26T19:50:28.208Z,7.95
2022-08-26T19:53:00.783Z,8.55
2022-08-26T19:55:31.566Z,7.60
2022-08-26T19:58:01.667Z,8.98
2022-08-26T20:00:32.359Z,9.15
2022-08-26T20:03:02.703Z,9.00
2022-08-26T20:05:33.281Z,9.43
2022-08-26T20:08:04.283Z,8.30
2022-08-26T20:13:06.153Z,9.82
2022-08-26T20:15:38.990Z,10.23
2022-08-26T20:18:30.721Z,8.65
2022-08-26T20:21:19.535Z,7.53
2022-08-26T20:23:51.754Z,8.98
2022-08-26T20:26:21.482Z,7.35
2022-08-26T20:28:54.380Z,7.00
2022-08-26T20:31:26.065Z,7.45
2022-08-26T20:33:56.941Z,8.20
2022-08-26T20:36:28.319Z,7.97
2022-08-26T20:39:00.420Z,8.70
2022-08-26T20:41:30.117Z,7.38
2022-08-26T20:44:00.574Z,8.55
2022-08-26T20:46:30.348Z,8.15
2022-08-26T20:48:59.877Z,8.77
2022-08-26T20:51:30.659Z,9.00
2022-08-26T20:54:01.766Z,8.93
2022-08-26T20:59:02.647Z,8.20
2022-08-26T21:01:35.611Z,8.95
2022-08-26T21:04:09.696Z,9.45
2022-08-26T21:06:39.764Z,9.00
2022-08-26T21:09:15.623Z,9.48
2022-08-26T21:11:47.225Z,9.20
2022-08-26T21:14:17.610Z,9.82
2022-08-26T21:16:49.456Z,9.40
2022-08-26T21:19:20.815Z,8.90
2022-08-26T21:24:21.283Z,9.10
2022-08-26T21:26:51.239Z,8.82
2022-08-26T21:29:25.525Z,10.30
2022-08-26T21:31:54.876Z,8.85
2022-08-26T21:34:28.319Z,9.68
2022-08-26T21:36:57.466Z,10.77
2022-08-26T21:39:30.445Z,10.02
2022-08-26T21:42:02.983Z,11.18
2022-08-26T21:44:33.969Z,10.05
2022-08-26T21:47:05.119Z,9.00
2022-08-26T21:49:34.677Z,9.23
2022-08-26T21:52:06.032Z,8.52
2022-08-26T21:57:06.657Z,7.63
2022-08-26T21:59:36.665Z,8.40
2022-08-26T22:02:08.759Z,8.30
2022-08-26T22:04:38.782Z,7.82
2022-08-26T22:07:08.788Z,8.65
2022-08-26T22:09:40.051Z,8.02
2022-08-26T22:12:14.764Z,8.82
2022-08-26T22:14:45.106Z,8.60
2022-08-26T22:17:16.154Z,8.75
2022-08-26T22:19:46.903Z,7.88
2022-08-26T22:22:16.702Z,8.27
2022-08-26T22:24:48.338Z,9.02
2022-08-26T22:27:18.837Z,7.85
2022-08-26T22:29:49.993Z,7.93
2022-08-26T22:32:21.375Z,7.97
2022-08-26T22:34:51.691Z,8.45
2022-08-26T22:37:21.175Z,8.33
2022-08-26T22:39:52.214Z,8.00
2022-08-26T22:42:21.313Z,7.75
2022-08-26T22:44:51.037Z,8.18
2022-08-26T22:47:20.798Z,8.18
2022-08-26T22:49:54.925Z,7.40
2022-08-26T22:52:24.323Z,7.72
2022-08-26T22:54:55.794Z,8.27
2022-08-26T22:57:25.939Z,8.20
2022-08-26T22:59:55.833Z,7.53
2022-08-26T23:02:34.975Z,7.47
2022-08-26T23:05:04.591Z,8.75
2022-08-26T23:07:34.169Z,7.10
2022-08-26T23:10:07.893Z,8.07
2022-08-26T23:12:38.187Z,7.95
2022-08-26T23:15:09.634Z,8.53
2022-08-26T23:17:39.324Z,7.25
2022-08-26T23:20:11.889Z,7.75
2022-08-26T23:22:41.264Z,8.15
2022-08-26T23:25:13.403Z,7.97
2022-08-26T23:27:44.791Z,8.43
2022-08-26T23:30:17.363Z,7.38
2022-08-26T23:32:46.707Z,7.68
2022-08-26T23:35:14.810Z,7.22
2022-08-26T23:37:48.986Z,7.60
2022-08-26T23:40:29.403Z,7.22
2022-08-26T23:43:00.293Z,8.20
2022-08-26T23:45:32.974Z,8.18
2022-08-26T23:48:03.391Z,7.28
2022-08-26T23:50:56.701Z,7.97
2022-08-26T23:53:29.982Z,7.88
2022-08-26T23:56:02.005Z,7.72
2022-08-26T23:58:31.554Z,9.48
